createdAt,value
2022-09-03T00:00:14.088Z,9.11
2022-09-03T00:06:14.691Z,8.87
2022-09-03T00:12:01.611Z,9.09
2022-09-03T00:17:32.837Z,8.74
2022-09-03T00:23:02.058Z,8.86
2022-09-03T00:28:30.769Z,9.08
2022-09-03T00:34:08.846Z,8.95
2022-09-03T00:39:35.702Z,8.80
2022-09-03T00:45:22.709Z,9.05
2022-09-03T00:51:30.108Z,8.82
2022-09-03T00:57:26.238Z,9.00
2022-09-03T01:03:18.858Z,9.04
2022-09-03T01:09:04.837Z,9.07
2022-09-03T01:14:45.085Z,9.08
2022-09-03T01:20:18.148Z,9.07
2022-09-03T01:26:18.567Z,9.04
2022-09-03T01:32:02.017Z,9.00
2022-09-03T01:37:42.306Z,8.95
2022-09-03T01:43:19.564Z,8.89
2022-09-03T01:48:48.107Z,8.36
2022-09-03T01:54:21.043Z,8.78
2022-09-03T02:00:07.646Z,8.34
2022-09-03T02:05:40.027Z,8.67
2022-09-03T02:11:03.458Z,8.38
2022-09-03T02:16:34.145Z,8.20
2022-09-03T02:22:01.505Z,8.23
2022-09-03T02:27:27.307Z,8.60
2022-09-03T02:32:49.667Z,8.26
2022-09-03T02:38:21.928Z,8.48
2022-09-03T02:43:57.478Z,8.64
2022-09-03T02:49:56.305Z,8.67
2022-09-03T02:55:11.439Z,8.41
2022-09-03T03:00:34.130Z,8.70
2022-09-03T03:05:59.798Z,8.64
2022-09-03T03:11:22.797Z,8.67
2022-09-03T03:16:44.704Z,8.60
2022-09-03T03:22:06.928Z,8.63
2022-09-03T03:27:28.919Z,8.79
2022-09-03T03:32:50.789Z,8.78
2022-09-03T03:38:12.927Z,8.81
2022-09-03T03:43:34.625Z,8.72
2022-09-03T03:49:00.377Z,8.62
2022-09-03T03:54:23.156Z,8.88
2022-09-03T03:59:48.537Z,8.75
2022-09-03T04:05:10.489Z,9.10
2022-09-03T04:10:33.707Z,9.04
2022-09-03T04:16:14.172Z,9.51
2022-09-03T04:21:39.956Z,9.47
2022-09-03T04:27:02.337Z,9.40
2022-09-03T04:32:42.896Z,9.70
2022-09-03T04:38:05.474Z,9.74
2022-09-03T04:43:28.864Z,9.88
2022-09-03T04:48:53.538Z,10.16
2022-09-03T04:54:15.456Z,10.37
2022-09-03T04:59:37.497Z,10.51
2022-09-03T05:04:59.036Z,10.63
2022-09-03T05:10:24.587Z,10.76
2022-09-03T05:15:46.237Z,10.82
2022-09-03T05:21:10.734Z,10.85
2022-09-03T05:26:37.636Z,11.08
2022-09-03T05:31:59.469Z,11.36
2022-09-03T05:37:21.606Z,11.65
2022-09-03T05:42:43.937Z,11.64
2022-09-03T05:48:05.936Z,11.35
2022-09-03T05:53:29.857Z,11.63
2022-09-03T05:59:03.485Z,11.52
2022-09-03T06:04:25.457Z,11.81
2022-09-03T06:09:48.477Z,12.30
2022-09-03T06:15:11.556Z,12.61
2022-09-03T06:20:36.982Z,12.75
2022-09-03T06:26:07.257Z,12.61
2022-09-03T06:31:29.703Z,12.96
2022-09-03T06:36:52.165Z,12.89
2022-09-03T06:42:16.737Z,12.78
2022-09-03T06:47:38.896Z,13.19
2022-09-03T06:53:00.896Z,13.51
2022-09-03T06:58:23.824Z,13.32
2022-09-03T07:03:48.369Z,13.46
2022-09-03T07:09:12.046Z,13.74
2022-09-03T07:14:34.296Z,14.13
2022-09-03T07:19:56.456Z,14.07
2022-09-03T07:25:19.185Z,13.82
2022-09-03T07:30:41.265Z,13.63
2022-09-03T07:36:26.756Z,13.84
2022-09-03T07:41:50.687Z,14.18
2022-09-03T07:47:13.817Z,13.59
2022-09-03T07:53:26.458Z,13.86
2022-09-03T07:58:49.726Z,13.32
2022-09-03T08:04:12.221Z,13.19
2022-09-03T08:09:34.325Z,13.20
2022-09-03T08:15:00.365Z,13.61
2022-09-03T08:20:22.105Z,13.57
2022-09-03T08:25:44.987Z,13.72
2022-09-03T08:31:13.146Z,13.76
2022-09-03T08:36:38.357Z,13.77
2022-09-03T08:42:19.339Z,13.87
2022-09-03T08:47:54.748Z,13.99
2022-09-03T08:53:41.225Z,14.45
2022-09-03T08:59:05.217Z,14.98
2022-09-03T09:04:35.449Z,15.31
2022-09-03T09:10:28.059Z,15.50
2022-09-03T09:16:02.545Z,15.18
2022-09-03T09:21:31.045Z,14.87
2022-09-03T09:27:16.141Z,14.80
2022-09-03T09:32:38.938Z,14.76
2022-09-03T09:38:00.913Z,14.59
2022-09-03T09:43:23.384Z,15.06
2022-09-03T09:48:58.873Z,14.94
2022-09-03T09:54:28.626Z,15.20
2022-09-03T10:00:02.526Z,15.45
2022-09-03T10:05:34.467Z,15.23
2022-09-03T10:10:58.546Z,14.88
2022-09-03T10:16:37.214Z,15.05
2022-09-03T10:22:03.725Z,14.63
2022-09-03T10:27:28.236Z,14.67
2022-09-03T10:33:14.125Z,14.46
2022-09-03T10:38:38.605Z,14.70
2022-09-03T10:44:19.975Z,15.01
2022-09-03T10:49:50.105Z,15.32
2022-09-03T10:55:25.527Z,15.60
2022-09-03T11:00:54.618Z,16.03
2022-09-03T11:06:25.185Z,15.89
2022-09-03T11:11:55.357Z,15.68
2022-09-03T11:17:27.105Z,15.34
2022-09-03T11:22:53.785Z,14.95
2022-09-03T11:28:45.925Z,14.98
2022-09-03T11:34:32.244Z,14.86
2022-09-03T11:40:12.268Z,14.77
2022-09-03T11:45:36.528Z,14.73
2022-09-03T11:50:58.767Z,14.43
2022-09-03T11:56:21.567Z,14.06
2022-09-03T12:02:12.683Z,14.49
2022-09-03T12:08:06.728Z,14.57
2022-09-03T12:14:06.434Z,14.57
2022-09-03T12:19:33.434Z,14.66
2022-09-03T12:24:56.377Z,14.71
2022-09-03T12:30:24.629Z,14.79
2022-09-03T12:36:00.714Z,14.70
2022-09-03T12:41:32.073Z,15.02
2022-09-03T12:53:00.177Z,15.07
2022-09-03T12:58:32.865Z,14.58
2022-09-03T13:04:03.678Z,14.44
2022-09-03T13:09:33.727Z,13.99
2022-09-03T13:14:57.088Z,14.74
2022-09-03T13:20:50.279Z,14.82
2022-09-03T13:26:41.517Z,14.86
2022-09-03T13:32:31.567Z,14.69
2022-09-03T13:38:16.857Z,15.06
2022-09-03T13:44:05.659Z,15.03
2022-09-03T13:50:22.156Z,14.99
2022-09-03T13:55:51.195Z,14.93
2022-09-03T14:01:34.861Z,14.80
2022-09-03T14:07:07.188Z,14.50
2022-09-03T14:12:43.111Z,14.24
2022-09-03T14:18:33.154Z,14.13
2022-09-03T14:24:14.508Z,14.28
2022-09-03T14:29:38.020Z,14.39
2022-09-03T14:35:32.423Z,14.23
2022-09-03T14:41:17.427Z,14.01
2022-09-03T14:47:05.866Z,13.88
2022-09-03T14:53:05.838Z,13.68
2022-09-03T14:59:17.596Z,13.45
2022-09-03T15:04:52.976Z,13.64
2022-09-03T15:10:44.822Z,13.66
2022-09-03T15:16:26.630Z,13.22
2022-09-03T15:22:09.088Z,13.40
2022-09-03T15:28:13.410Z,13.25
2022-09-03T15:34:02.224Z,13.14
2022-09-03T15:39:42.093Z,12.84
2022-09-03T15:45:21.890Z,12.64
2022-09-03T15:50:55.209Z,12.74
2022-09-03T15:56:33.557Z,12.37
2022-09-03T16:02:09.369Z,12.25
2022-09-03T16:07:42.976Z,11.98
2022-09-03T16:13:44.770Z,11.72
2022-09-03T16:19:44.610Z,11.16
2022-09-03T16:25:23.837Z,11.34
2022-09-03T16:31:34.231Z,11.04
2022-09-03T16:37:16.588Z,10.45
2022-09-03T16:42:49.208Z,10.56
2022-09-03T16:55:21.867Z,10.01
2022-09-03T17:01:10.723Z,10.11
2022-09-03T17:06:39.248Z,10.00
2022-09-03T17:12:16.548Z,9.78
2022-09-03T17:18:11.649Z,9.40
2022-09-03T17:23:45.540Z,9.34
2022-09-03T17:29:10.968Z,9.17
2022-09-03T17:34:51.936Z,9.07
2022-09-03T17:40:51.621Z,9.09
2022-09-03T17:46:40.975Z,8.98
2022-09-03T17:52:21.406Z,8.83
2022-09-03T17:57:57.866Z,8.68
2022-09-03T18:03:30.737Z,8.60
2022-09-03T18:09:07.578Z,8.56
2022-09-03T18:14:38.916Z,8.50
2022-09-03T18:20:26.987Z,8.39
2022-09-03T18:26:15.251Z,8.36
2022-09-03T18:31:56.128Z,8.17
2022-09-03T18:37:44.195Z,8.21
2022-09-03T18:43:42.905Z,8.19
2022-09-03T18:50:03.005Z,8.23
2022-09-03T18:56:12.446Z,8.09
2022-09-03T19:02:02.396Z,7.53
2022-09-03T19:08:06.357Z,7.46
2022-09-03T19:14:00.187Z,7.83
2022-09-03T19:20:18.566Z,7.72
2022-09-03T19:26:01.537Z,7.21
2022-09-03T19:31:54.529Z,7.39
2022-09-03T19:37:42.848Z,6.88
2022-09-03T19:43:55.116Z,6.91
2022-09-03T19:50:00.675Z,7.10
2022-09-03T19:55:47.205Z,6.65
2022-09-03T20:01:30.854Z,6.88
2022-09-03T20:07:12.245Z,6.23
2022-09-03T20:12:38.827Z,6.04
2022-09-03T20:18:32.766Z,6.24
2022-09-03T20:24:01.165Z,6.29
2022-09-03T20:29:32.201Z,6.23
2022-09-03T20:35:04.587Z,5.87
2022-09-03T20:40:46.397Z,5.88
2022-09-03T20:46:14.328Z,6.14
2022-09-03T20:52:06.669Z,5.98
2022-09-03T20:57:53.566Z,5.95
2022-09-03T21:03:50.998Z,5.99
2022-09-03T21:09:42.497Z,6.20
2022-09-03T21:15:11.125Z,6.36
2022-09-03T21:21:05.246Z,6.41
2022-09-03T21:26:32.126Z,6.35
2022-09-03T21:32:12.485Z,6.74
2022-09-03T21:37:41.985Z,6.91
2022-09-03T21:43:24.537Z,7.00
2022-09-03T21:49:15.886Z,6.85
2022-09-03T21:54:37.845Z,6.95
2022-09-03T22:00:02.467Z,6.96
2022-09-03T22:05:47.486Z,6.89
2022-09-03T22:11:28.126Z,6.94
2022-09-03T22:17:11.305Z,6.91
2022-09-03T22:22:50.666Z,6.77
2022-09-03T22:28:23.177Z,6.79
2022-09-03T22:34:28.586Z,6.64
2022-09-03T22:39:50.614Z,6.39
2022-09-03T22:45:25.387Z,6.32
2022-09-03T22:50:53.299Z,6.20
2022-09-03T22:56:22.648Z,5.97
2022-09-03T23:02:09.805Z,5.85
2022-09-03T23:07:54.345Z,5.85
2022-09-03T23:13:21.566Z,5.70
2022-09-03T23:18:46.725Z,5.72
2022-09-03T23:24:17.165Z,5.71
2022-09-03T23:29:46.827Z,5.55
2022-09-03T23:35:16.739Z,5.34
2022-09-03T23:40:39.309Z,5.04
2022-09-03T23:46:26.239Z,4.80
2022-09-03T23:52:24.405Z,4.63
2022-09-03T23:58:00.303Z,4.28
